sensor_id;sensor_type;location;lat;lon;timestamp;P1;durP1;ratioP1;P2;durP2;ratioP2
54823;SDS011;40724;53.196;5.980;2023-06-04T00:00:08;5.38;;;3.25;;
54823;SDS011;40724;53.196;5.980;2023-06-04T00:02:34;5.35;;;2.92;;
54823;SDS011;40724;53.196;5.980;2023-06-04T00:05:00;8.23;;;3.85;;
54823;SDS011;40724;53.196;5.980;2023-06-04T00:07:26;7.22;;;3.78;;
54823;SDS011;40724;53.196;5.980;2023-06-04T00:09:53;9.80;;;4.53;;
54823;SDS011;40724;53.196;5.980;2023-06-04T00:12:19;7.53;;;3.53;;
54823;SDS011;40724;53.196;5.980;2023-06-04T00:14:45;7.43;;;3.90;;
54823;SDS011;40724;53.196;5.980;2023-06-04T00:17:11;6.20;;;3.78;;
54823;SDS011;40724;53.196;5.980;2023-06-04T00:19:38;5.50;;;3.20;;
54823;SDS011;40724;53.196;5.980;2023-06-04T00:22:05;6.93;;;3.25;;
54823;SDS011;40724;53.196;5.980;2023-06-04T00:24:31;13.13;;;4.22;;
54823;SDS011;40724;53.196;5.980;2023-06-04T00:26:58;7.28;;;4.03;;
54823;SDS011;40724;53.196;5.980;2023-06-04T00:29:24;6.10;;;3.45;;
54823;SDS011;40724;53.196;5.980;2023-06-04T00:31:50;8.27;;;3.08;;
54823;SDS011;40724;53.196;5.980;2023-06-04T00:34:17;7.15;;;4.10;;
54823;SDS011;40724;53.196;5.980;2023-06-04T00:36:43;6.45;;;3.70;;
54823;SDS011;40724;53.196;5.980;2023-06-04T00:39:10;6.88;;;3.28;;
54823;SDS011;40724;53.196;5.980;2023-06-04T00:41:36;6.00;;;3.60;;
54823;SDS011;40724;53.196;5.980;2023-06-04T00:44:02;7.75;;;3.90;;
54823;SDS011;40724;53.196;5.980;2023-06-04T00:46:31;7.05;;;3.58;;
54823;SDS011;40724;53.196;5.980;2023-06-04T00:48:58;7.95;;;3.85;;
54823;SDS011;40724;53.196;5.980;2023-06-04T00:51:24;8.15;;;4.03;;
54823;SDS011;40724;53.196;5.980;2023-06-04T00:53:51;5.05;;;2.90;;
54823;SDS011;40724;53.196;5.980;2023-06-04T00:56:18;9.80;;;4.18;;
54823;SDS011;40724;53.196;5.980;2023-06-04T00:58:44;6.95;;;3.92;;
54823;SDS011;40724;53.196;5.980;2023-06-04T01:03:49;6.88;;;3.00;;
54823;SDS011;40724;53.196;5.980;2023-06-04T01:06:21;7.40;;;3.35;;
54823;SDS011;40724;53.196;5.980;2023-06-04T01:08:49;10.48;;;5.25;;
54823;SDS011;40724;53.196;5.980;2023-06-04T01:11:18;6.28;;;3.10;;
54823;SDS011;40724;53.196;5.980;2023-06-04T01:13:44;5.70;;;3.53;;
54823;SDS011;40724;53.196;5.980;2023-06-04T01:16:10;5.32;;;3.60;;
54823;SDS011;40724;53.196;5.980;2023-06-04T01:18:37;7.30;;;3.53;;
54823;SDS011;40724;53.196;5.980;2023-06-04T01:21:06;4.30;;;2.63;;
54823;SDS011;40724;53.196;5.980;2023-06-04T01:26:08;7.05;;;3.20;;
54823;SDS011;40724;53.196;5.980;2023-06-04T01:28:34;6.68;;;3.50;;
54823;SDS011;40724;53.196;5.980;2023-06-04T01:31:01;6.28;;;3.15;;
54823;SDS011;40724;53.196;5.980;2023-06-04T01:33:27;7.32;;;3.40;;
54823;SDS011;40724;53.196;5.980;2023-06-04T01:35:54;4.43;;;3.10;;
54823;SDS011;40724;53.196;5.980;2023-06-04T01:38:21;6.35;;;4.38;;
54823;SDS011;40724;53.196;5.980;2023-06-04T01:40:47;5.25;;;2.75;;
54823;SDS011;40724;53.196;5.980;2023-06-04T01:43:13;8.50;;;4.30;;
54823;SDS011;40724;53.196;5.980;2023-06-04T01:45:40;8.80;;;4.00;;
54823;SDS011;40724;53.196;5.980;2023-06-04T01:48:06;8.60;;;3.95;;
54823;SDS011;40724;53.196;5.980;2023-06-04T01:50:32;5.85;;;3.25;;
54823;SDS011;40724;53.196;5.980;2023-06-04T01:52:58;7.78;;;3.63;;
54823;SDS011;40724;53.196;5.980;2023-06-04T01:55:25;14.32;;;4.20;;
54823;SDS011;40724;53.196;5.980;2023-06-04T01:57:53;7.15;;;3.42;;
54823;SDS011;40724;53.196;5.980;2023-06-04T02:00:19;7.60;;;3.97;;
54823;SDS011;40724;53.196;5.980;2023-06-04T02:02:45;7.68;;;3.58;;
54823;SDS011;40724;53.196;5.980;2023-06-04T02:05:15;4.43;;;2.80;;
54823;SDS011;40724;53.196;5.980;2023-06-04T02:07:41;6.35;;;3.55;;
54823;SDS011;40724;53.196;5.980;2023-06-04T02:10:16;6.43;;;3.55;;
54823;SDS011;40724;53.196;5.980;2023-06-04T02:15:38;7.28;;;4.47;;
54823;SDS011;40724;53.196;5.980;2023-06-04T02:18:17;8.88;;;3.78;;
54823;SDS011;40724;53.196;5.980;2023-06-04T02:20:46;6.38;;;4.05;;
54823;SDS011;40724;53.196;5.980;2023-06-04T02:23:13;6.00;;;4.18;;
54823;SDS011;40724;53.196;5.980;2023-06-04T02:25:40;4.75;;;3.47;;
54823;SDS011;40724;53.196;5.980;2023-06-04T02:28:06;6.97;;;3.90;;
54823;SDS011;40724;53.196;5.980;2023-06-04T02:30:32;8.35;;;3.90;;
54823;SDS011;40724;53.196;5.980;2023-06-04T02:32:58;5.82;;;3.78;;
54823;SDS011;40724;53.196;5.980;2023-06-04T02:35:29;8.48;;;3.90;;
54823;SDS011;40724;53.196;5.980;2023-06-04T02:37:55;9.23;;;4.70;;
54823;SDS011;40724;53.196;5.980;2023-06-04T02:40:26;8.55;;;4.20;;
54823;SDS011;40724;53.196;5.980;2023-06-04T02:42:53;8.20;;;3.65;;
54823;SDS011;40724;53.196;5.980;2023-06-04T02:45:19;6.90;;;4.30;;
54823;SDS011;40724;53.196;5.980;2023-06-04T02:47:45;8.20;;;3.70;;
54823;SDS011;40724;53.196;5.980;2023-06-04T02:50:12;10.60;;;3.97;;
54823;SDS011;40724;53.196;5.980;2023-06-04T02:52:39;7.25;;;3.90;;
54823;SDS011;40724;53.196;5.980;2023-06-04T02:55:05;11.70;;;4.30;;
54823;SDS011;40724;53.196;5.980;2023-06-04T02:57:32;9.70;;;3.65;;
54823;SDS011;40724;53.196;5.980;2023-06-04T02:59:58;9.88;;;4.68;;
54823;SDS011;40724;53.196;5.980;2023-06-04T03:02:25;6.88;;;4.38;;
54823;SDS011;40724;53.196;5.980;2023-06-04T03:04:51;13.10;;;4.32;;
54823;SDS011;40724;53.196;5.980;2023-06-04T03:07:17;6.47;;;3.88;;
54823;SDS011;40724;53.196;5.980;2023-06-04T03:09:50;8.57;;;4.18;;
54823;SDS011;40724;53.196;5.980;2023-06-04T03:12:16;7.35;;;4.25;;
54823;SDS011;40724;53.196;5.980;2023-06-04T03:14:43;12.13;;;4.63;;
54823;SDS011;40724;53.196;5.980;2023-06-04T03:17:09;8.02;;;3.80;;
54823;SDS011;40724;53.196;5.980;2023-06-04T03:19:38;7.07;;;4.68;;
54823;SDS011;40724;53.196;5.980;2023-06-04T03:22:05;7.45;;;4.75;;
54823;SDS011;40724;53.196;5.980;2023-06-04T03:24:35;6.70;;;4.32;;
54823;SDS011;40724;53.196;5.980;2023-06-04T03:27:02;7.88;;;4.45;;
54823;SDS011;40724;53.196;5.980;2023-06-04T03:29:29;11.45;;;5.40;;
54823;SDS011;40724;53.196;5.980;2023-06-04T03:31:59;7.95;;;4.22;;
54823;SDS011;40724;53.196;5.980;2023-06-04T03:34:25;11.73;;;5.30;;
54823;SDS011;40724;53.196;5.980;2023-06-04T03:36:52;9.30;;;5.07;;
54823;SDS011;40724;53.196;5.980;2023-06-04T03:39:18;7.30;;;5.20;;
54823;SDS011;40724;53.196;5.980;2023-06-04T03:41:44;13.93;;;5.53;;
54823;SDS011;40724;53.196;5.980;2023-06-04T03:44:14;7.25;;;5.10;;
54823;SDS011;40724;53.196;5.980;2023-06-04T03:46:40;13.75;;;6.25;;
54823;SDS011;40724;53.196;5.980;2023-06-04T03:49:06;11.60;;;5.82;;
54823;SDS011;40724;53.196;5.980;2023-06-04T03:51:33;13.73;;;5.53;;
54823;SDS011;40724;53.196;5.980;2023-06-04T03:53:59;12.15;;;5.63;;
54823;SDS011;40724;53.196;5.980;2023-06-04T03:56:27;8.65;;;5.78;;
54823;SDS011;40724;53.196;5.980;2023-06-04T03:58:53;7.32;;;6.05;;
54823;SDS011;40724;53.196;5.980;2023-06-04T04:01:19;13.02;;;5.32;;
54823;SDS011;40724;53.196;5.980;2023-06-04T04:03:45;13.15;;;6.60;;
54823;SDS011;40724;53.196;5.980;2023-06-04T04:06:15;14.32;;;7.40;;
54823;SDS011;40724;53.196;5.980;2023-06-04T04:08:41;9.05;;;6.10;;
54823;SDS011;40724;53.196;5.980;2023-06-04T04:11:09;11.07;;;6.63;;
54823;SDS011;40724;53.196;5.980;2023-06-04T04:13:35;9.90;;;6.40;;
54823;SDS011;40724;53.196;5.980;2023-06-04T04:16:01;8.35;;;6.85;;
54823;SDS011;40724;53.196;5.980;2023-06-04T04:18:28;9.88;;;6.70;;
54823;SDS011;40724;53.196;5.980;2023-06-04T04:20:57;9.32;;;6.65;;
54823;SDS011;40724;53.196;5.980;2023-06-04T04:23:23;12.93;;;6.75;;
54823;SDS011;40724;53.196;5.980;2023-06-04T04:25:50;10.15;;;6.13;;
54823;SDS011;40724;53.196;5.980;2023-06-04T04:28:16;10.57;;;5.72;;
54823;SDS011;40724;53.196;5.980;2023-06-04T04:30:44;11.82;;;6.70;;
54823;SDS011;40724;53.196;5.980;2023-06-04T04:33:10;8.85;;;5.68;;
54823;SDS011;40724;53.196;5.980;2023-06-04T04:35:36;9.98;;;6.57;;
54823;SDS011;40724;53.196;5.980;2023-06-04T04:38:02;10.75;;;6.93;;
54823;SDS011;40724;53.196;5.980;2023-06-04T04:40:29;9.70;;;5.43;;
54823;SDS011;40724;53.196;5.980;2023-06-04T04:42:56;11.18;;;6.22;;
54823;SDS011;40724;53.196;5.980;2023-06-04T04:45:22;10.30;;;6.65;;
54823;SDS011;40724;53.196;5.980;2023-06-04T04:47:48;8.80;;;5.70;;
54823;SDS011;40724;53.196;5.980;2023-06-04T04:50:16;8.27;;;5.70;;
54823;SDS011;40724;53.196;5.980;2023-06-04T04:52:42;7.80;;;5.40;;
54823;SDS011;40724;53.196;5.980;2023-06-04T04:55:08;10.52;;;5.40;;
54823;SDS011;40724;53.196;5.980;2023-06-04T04:57:37;10.68;;;5.15;;
54823;SDS011;40724;53.196;5.980;2023-06-04T05:00:03;22.35;;;7.03;;
54823;SDS011;40724;53.196;5.980;2023-06-04T05:02:31;9.18;;;6.18;;
54823;SDS011;40724;53.196;5.980;2023-06-04T05:04:57;12.13;;;5.68;;
54823;SDS011;40724;53.196;5.980;2023-06-04T05:07:23;10.55;;;6.18;;
54823;SDS011;40724;53.196;5.980;2023-06-04T05:09:50;6.95;;;5.10;;
54823;SDS011;40724;53.196;5.980;2023-06-04T05:12:16;9.02;;;5.70;;
54823;SDS011;40724;53.196;5.980;2023-06-04T05:14:42;13.52;;;6.85;;
54823;SDS011;40724;53.196;5.980;2023-06-04T05:17:08;11.20;;;7.03;;
54823;SDS011;40724;53.196;5.980;2023-06-04T05:19:36;11.43;;;6.82;;
54823;SDS011;40724;53.196;5.980;2023-06-04T05:22:03;10.48;;;6.60;;
54823;SDS011;40724;53.196;5.980;2023-06-04T05:24:30;15.75;;;7.38;;
54823;SDS011;40724;53.196;5.980;2023-06-04T05:26:58;12.80;;;6.53;;
54823;SDS011;40724;53.196;5.980;2023-06-04T05:29:24;11.43;;;6.97;;
54823;SDS011;40724;53.196;5.980;2023-06-04T05:31:50;13.63;;;6.25;;
54823;SDS011;40724;53.196;5.980;2023-06-04T05:34:16;9.60;;;5.55;;
54823;SDS011;40724;53.196;5.980;2023-06-04T05:36:43;9.00;;;6.32;;
54823;SDS011;40724;53.196;5.980;2023-06-04T05:39:09;14.82;;;6.15;;
54823;SDS011;40724;53.196;5.980;2023-06-04T05:41:36;11.73;;;5.50;;
54823;SDS011;40724;53.196;5.980;2023-06-04T05:44:02;12.40;;;6.32;;
54823;SDS011;40724;53.196;5.980;2023-06-04T05:46:29;9.95;;;5.88;;
54823;SDS011;40724;53.196;5.980;2023-06-04T05:48:55;13.10;;;7.22;;
54823;SDS011;40724;53.196;5.980;2023-06-04T05:51:21;13.60;;;6.22;;
54823;SDS011;40724;53.196;5.980;2023-06-04T05:53:47;9.25;;;5.47;;
54823;SDS011;40724;53.196;5.980;2023-06-04T05:56:13;9.68;;;5.50;;
54823;SDS011;40724;53.196;5.980;2023-06-04T05:58:41;10.93;;;5.28;;
54823;SDS011;40724;53.196;5.980;2023-06-04T06:01:07;10.68;;;4.60;;
54823;SDS011;40724;53.196;5.980;2023-06-04T06:03:34;9.75;;;4.60;;
54823;SDS011;40724;53.196;5.980;2023-06-04T06:06:01;7.82;;;4.55;;
54823;SDS011;40724;53.196;5.980;2023-06-04T06:08:27;9.05;;;4.93;;
54823;SDS011;40724;53.196;5.980;2023-06-04T06:10:54;9.75;;;4.88;;
54823;SDS011;40724;53.196;5.980;2023-06-04T06:13:21;11.57;;;5.30;;
54823;SDS011;40724;53.196;5.980;2023-06-04T06:15:47;9.48;;;4.72;;
54823;SDS011;40724;53.196;5.980;2023-06-04T06:18:13;10.30;;;5.00;;
54823;SDS011;40724;53.196;5.980;2023-06-04T06:20:40;9.82;;;4.82;;
54823;SDS011;40724;53.196;5.980;2023-06-04T06:23:06;8.50;;;4.50;;
54823;SDS011;40724;53.196;5.980;2023-06-04T06:25:33;8.40;;;4.07;;
54823;SDS011;40724;53.196;5.980;2023-06-04T06:27:59;9.65;;;4.22;;
54823;SDS011;40724;53.196;5.980;2023-06-04T06:30:25;7.65;;;3.58;;
54823;SDS011;40724;53.196;5.980;2023-06-04T06:32:51;9.43;;;3.58;;
54823;SDS011;40724;53.196;5.980;2023-06-04T06:35:18;7.50;;;3.20;;
54823;SDS011;40724;53.196;5.980;2023-06-04T06:37:45;6.10;;;2.90;;
54823;SDS011;40724;53.196;5.980;2023-06-04T06:40:11;11.57;;;3.40;;
54823;SDS011;40724;53.196;5.980;2023-06-04T06:42:37;5.22;;;2.80;;
54823;SDS011;40724;53.196;5.980;2023-06-04T06:45:03;4.22;;;2.70;;
54823;SDS011;40724;53.196;5.980;2023-06-04T06:47:29;5.40;;;3.00;;
54823;SDS011;40724;53.196;5.980;2023-06-04T06:49:56;9.45;;;3.00;;
54823;SDS011;40724;53.196;5.980;2023-06-04T06:52:21;7.63;;;2.90;;
54823;SDS011;40724;53.196;5.980;2023-06-04T06:54:47;6.72;;;2.80;;
54823;SDS011;40724;53.196;5.980;2023-06-04T06:57:13;7.30;;;2.83;;
54823;SDS011;40724;53.196;5.980;2023-06-04T06:59:40;5.88;;;2.28;;
54823;SDS011;40724;53.196;5.980;2023-06-04T07:02:06;4.28;;;2.40;;
54823;SDS011;40724;53.196;5.980;2023-06-04T07:04:32;5.45;;;2.50;;
54823;SDS011;40724;53.196;5.980;2023-06-04T07:06:58;8.38;;;2.55;;
54823;SDS011;40724;53.196;5.980;2023-06-04T07:09:23;5.30;;;2.50;;
54823;SDS011;40724;53.196;5.980;2023-06-04T07:11:49;4.40;;;2.40;;
54823;SDS011;40724;53.196;5.980;2023-06-04T07:14:17;7.28;;;2.78;;
54823;SDS011;40724;53.196;5.980;2023-06-04T07:16:43;5.35;;;2.35;;
54823;SDS011;40724;53.196;5.980;2023-06-04T07:19:09;8.32;;;2.85;;
54823;SDS011;40724;53.196;5.980;2023-06-04T07:21:35;5.75;;;2.55;;
54823;SDS011;40724;53.196;5.980;2023-06-04T07:24:01;8.82;;;3.08;;
54823;SDS011;40724;53.196;5.980;2023-06-04T07:26:28;5.90;;;2.78;;
54823;SDS011;40724;53.196;5.980;2023-06-04T07:28:55;5.18;;;2.47;;
54823;SDS011;40724;53.196;5.980;2023-06-04T07:31:22;4.72;;;1.92;;
54823;SDS011;40724;53.196;5.980;2023-06-04T07:33:48;3.40;;;2.10;;
54823;SDS011;40724;53.196;5.980;2023-06-04T07:36:15;3.80;;;2.53;;
54823;SDS011;40724;53.196;5.980;2023-06-04T07:38:42;5.10;;;2.25;;
54823;SDS011;40724;53.196;5.980;2023-06-04T07:41:08;5.72;;;2.13;;
54823;SDS011;40724;53.196;5.980;2023-06-04T07:43:35;3.88;;;2.10;;
54823;SDS011;40724;53.196;5.980;2023-06-04T07:46:02;4.60;;;2.30;;
54823;SDS011;40724;53.196;5.980;2023-06-04T07:48:28;4.85;;;2.58;;
54823;SDS011;40724;53.196;5.980;2023-06-04T07:50:57;5.97;;;2.78;;
54823;SDS011;40724;53.196;5.980;2023-06-04T07:53:24;4.88;;;2.20;;
54823;SDS011;40724;53.196;5.980;2023-06-04T07:55:50;4.72;;;1.98;;
54823;SDS011;40724;53.196;5.980;2023-06-04T07:58:17;5.90;;;2.35;;
54823;SDS011;40724;53.196;5.980;2023-06-04T08:00:42;4.72;;;2.10;;
54823;SDS011;40724;53.196;5.980;2023-06-04T08:03:08;5.95;;;2.38;;
54823;SDS011;40724;53.196;5.980;2023-06-04T08:05:35;7.25;;;1.75;;
54823;SDS011;40724;53.196;5.980;2023-06-04T08:08:01;5.95;;;1.75;;
54823;SDS011;40724;53.196;5.980;2023-06-04T08:10:28;4.75;;;1.75;;
54823;SDS011;40724;53.196;5.980;2023-06-04T08:12:55;9.30;;;3.20;;
54823;SDS011;40724;53.196;5.980;2023-06-04T08:15:21;6.05;;;2.58;;
54823;SDS011;40724;53.196;5.980;2023-06-04T08:17:47;4.15;;;2.05;;
54823;SDS011;40724;53.196;5.980;2023-06-04T08:20:13;7.88;;;1.73;;
54823;SDS011;40724;53.196;5.980;2023-06-04T08:22:39;4.95;;;1.83;;
54823;SDS011;40724;53.196;5.980;2023-06-04T08:25:06;6.13;;;2.25;;
54823;SDS011;40724;53.196;5.980;2023-06-04T08:27:34;3.92;;;1.95;;
54823;SDS011;40724;53.196;5.980;2023-06-04T08:30:00;7.80;;;2.20;;
54823;SDS011;40724;53.196;5.980;2023-06-04T08:32:27;4.18;;;2.05;;
54823;SDS011;40724;53.196;5.980;2023-06-04T08:34:54;5.53;;;2.25;;
54823;SDS011;40724;53.196;5.980;2023-06-04T08:37:20;7.93;;;1.83;;
54823;SDS011;40724;53.196;5.980;2023-06-04T08:39:46;6.00;;;2.47;;
54823;SDS011;40724;53.196;5.980;2023-06-04T08:42:34;8.40;;;3.08;;
54823;SDS011;40724;53.196;5.980;2023-06-04T08:45:02;6.45;;;1.85;;
54823;SDS011;40724;53.196;5.980;2023-06-04T08:47:29;5.88;;;2.10;;
54823;SDS011;40724;53.196;5.980;2023-06-04T08:49:58;5.55;;;2.17;;
54823;SDS011;40724;53.196;5.980;2023-06-04T08:52:25;3.78;;;2.10;;
54823;SDS011;40724;53.196;5.980;2023-06-04T08:54:54;4.10;;;2.30;;
54823;SDS011;40724;53.196;5.980;2023-06-04T08:57:21;3.63;;;2.28;;
54823;SDS011;40724;53.196;5.980;2023-06-04T08:59:48;3.88;;;1.95;;
54823;SDS011;40724;53.196;5.980;2023-06-04T09:02:15;5.30;;;2.33;;
54823;SDS011;40724;53.196;5.980;2023-06-04T09:04:41;5.70;;;1.83;;
54823;SDS011;40724;53.196;5.980;2023-06-04T09:07:10;6.20;;;2.63;;
54823;SDS011;40724;53.196;5.980;2023-06-04T09:09:38;5.45;;;1.83;;
54823;SDS011;40724;53.196;5.980;2023-06-04T09:12:11;3.45;;;1.88;;
54823;SDS011;40724;53.196;5.980;2023-06-04T09:14:47;5.33;;;2.13;;
54823;SDS011;40724;53.196;5.980;2023-06-04T09:17:15;3.00;;;1.45;;
54823;SDS011;40724;53.196;5.980;2023-06-04T09:19:46;5.03;;;2.25;;
54823;SDS011;40724;53.196;5.980;2023-06-04T09:22:12;6.55;;;1.77;;
54823;SDS011;40724;53.196;5.980;2023-06-04T09:24:41;7.35;;;1.90;;
54823;SDS011;40724;53.196;5.980;2023-06-04T09:27:19;4.50;;;2.10;;
54823;SDS011;40724;53.196;5.980;2023-06-04T09:29:56;6.53;;;2.33;;
54823;SDS011;40724;53.196;5.980;2023-06-04T09:32:26;5.30;;;2.05;;
54823;SDS011;40724;53.196;5.980;2023-06-04T09:34:53;4.18;;;1.90;;
54823;SDS011;40724;53.196;5.980;2023-06-04T09:37:20;3.38;;;1.80;;
54823;SDS011;40724;53.196;5.980;2023-06-04T09:39:55;6.55;;;2.40;;
54823;SDS011;40724;53.196;5.980;2023-06-04T09:42:22;5.38;;;1.95;;
54823;SDS011;40724;53.196;5.980;2023-06-04T09:44:48;3.40;;;2.28;;
54823;SDS011;40724;53.196;5.980;2023-06-04T09:47:14;4.30;;;2.17;;
54823;SDS011;40724;53.196;5.980;2023-06-04T09:49:44;4.53;;;2.35;;
54823;SDS011;40724;53.196;5.980;2023-06-04T09:52:11;3.28;;;1.58;;
54823;SDS011;40724;53.196;5.980;2023-06-04T09:54:40;4.90;;;2.20;;
54823;SDS011;40724;53.196;5.980;2023-06-04T09:57:13;4.78;;;2.22;;
54823;SDS011;40724;53.196;5.980;2023-06-04T09:59:47;2.38;;;1.70;;
54823;SDS011;40724;53.196;5.980;2023-06-04T10:02:21;3.83;;;1.42;;
54823;SDS011;40724;53.196;5.980;2023-06-04T10:04:54;2.67;;;1.50;;
54823;SDS011;40724;53.196;5.980;2023-06-04T10:07:24;5.45;;;1.88;;
54823;SDS011;40724;53.196;5.980;2023-06-04T10:09:51;5.60;;;2.05;;
54823;SDS011;40724;53.196;5.980;2023-06-04T10:12:20;4.32;;;1.58;;
54823;SDS011;40724;53.196;5.980;2023-06-04T10:14:51;4.15;;;1.70;;
54823;SDS011;40724;53.196;5.980;2023-06-04T10:17:18;3.63;;;1.90;;
54823;SDS011;40724;53.196;5.980;2023-06-04T10:19:47;5.10;;;1.50;;
54823;SDS011;40724;53.196;5.980;2023-06-04T10:22:17;4.35;;;2.55;;
54823;SDS011;40724;53.196;5.980;2023-06-04T10:24:43;6.38;;;2.17;;
54823;SDS011;40724;53.196;5.980;2023-06-04T10:27:10;5.85;;;2.65;;
54823;SDS011;40724;53.196;5.980;2023-06-04T10:29:38;3.28;;;2.03;;
54823;SDS011;40724;53.196;5.980;2023-06-04T10:32:05;3.17;;;1.35;;
54823;SDS011;40724;53.196;5.980;2023-06-04T10:34:31;2.78;;;1.73;;
54823;SDS011;40724;53.196;5.980;2023-06-04T10:36:58;5.80;;;2.20;;
54823;SDS011;40724;53.196;5.980;2023-06-04T10:39:25;3.70;;;1.95;;
54823;SDS011;40724;53.196;5.980;2023-06-04T10:42:02;8.55;;;2.10;;
54823;SDS011;40724;53.196;5.980;2023-06-04T10:44:32;3.33;;;2.13;;
54823;SDS011;40724;53.196;5.980;2023-06-04T10:46:58;3.78;;;1.98;;
54823;SDS011;40724;53.196;5.980;2023-06-04T10:49:28;3.55;;;2.03;;
54823;SDS011;40724;53.196;5.980;2023-06-04T10:51:54;3.22;;;1.73;;
54823;SDS011;40724;53.196;5.980;2023-06-04T10:54:28;5.65;;;1.90;;
54823;SDS011;40724;53.196;5.980;2023-06-04T10:56:55;4.70;;;2.30;;
54823;SDS011;40724;53.196;5.980;2023-06-04T10:59:21;5.95;;;1.95;;
54823;SDS011;40724;53.196;5.980;2023-06-04T11:01:49;6.88;;;2.08;;
54823;SDS011;40724;53.196;5.980;2023-06-04T11:04:22;7.18;;;2.72;;
54823;SDS011;40724;53.196;5.980;2023-06-04T11:07:04;3.55;;;2.35;;
54823;SDS011;40724;53.196;5.980;2023-06-04T11:09:37;3.05;;;1.83;;
54823;SDS011;40724;53.196;5.980;2023-06-04T11:12:06;6.20;;;2.30;;
54823;SDS011;40724;53.196;5.980;2023-06-04T11:14:33;5.05;;;2.05;;
54823;SDS011;40724;53.196;5.980;2023-06-04T11:17:12;7.45;;;2.22;;
54823;SDS011;40724;53.196;5.980;2023-06-04T11:19:38;3.63;;;1.90;;
54823;SDS011;40724;53.196;5.980;2023-06-04T11:22:05;4.30;;;2.00;;
54823;SDS011;40724;53.196;5.980;2023-06-04T11:24:34;3.80;;;1.55;;
54823;SDS011;40724;53.196;5.980;2023-06-04T11:27:00;5.13;;;1.77;;
54823;SDS011;40724;53.196;5.980;2023-06-04T11:29:28;3.83;;;1.67;;
54823;SDS011;40724;53.196;5.980;2023-06-04T11:31:54;2.72;;;1.63;;
54823;SDS011;40724;53.196;5.980;2023-06-04T11:36:50;9.15;;;2.17;;
54823;SDS011;40724;53.196;5.980;2023-06-04T11:39:18;4.03;;;1.75;;
54823;SDS011;40724;53.196;5.980;2023-06-04T11:41:44;7.82;;;2.05;;
54823;SDS011;40724;53.196;5.980;2023-06-04T11:44:11;3.53;;;1.90;;
54823;SDS011;40724;53.196;5.980;2023-06-04T11:46:41;2.97;;;2.00;;
54823;SDS011;40724;53.196;5.980;2023-06-04T11:49:17;3.58;;;1.67;;
54823;SDS011;40724;53.196;5.980;2023-06-04T11:51:47;2.53;;;1.50;;
54823;SDS011;40724;53.196;5.980;2023-06-04T11:54:14;8.02;;;1.70;;
54823;SDS011;40724;53.196;5.980;2023-06-04T11:56:44;5.38;;;1.90;;
54823;SDS011;40724;53.196;5.980;2023-06-04T11:59:13;4.80;;;1.65;;
54823;SDS011;40724;53.196;5.980;2023-06-04T12:01:41;4.35;;;1.85;;
54823;SDS011;40724;53.196;5.980;2023-06-04T12:04:11;3.33;;;1.65;;
54823;SDS011;40724;53.196;5.980;2023-06-04T12:07:00;4.40;;;1.95;;
54823;SDS011;40724;53.196;5.980;2023-06-04T12:09:28;3.45;;;1.80;;
54823;SDS011;40724;53.196;5.980;2023-06-04T12:12:06;4.40;;;1.95;;
54823;SDS011;40724;53.196;5.980;2023-06-04T12:14:33;2.28;;;1.23;;
54823;SDS011;40724;53.196;5.980;2023-06-04T12:17:09;5.15;;;1.60;;
54823;SDS011;40724;53.196;5.980;2023-06-04T12:19:47;2.35;;;1.27;;
54823;SDS011;40724;53.196;5.980;2023-06-04T12:22:14;3.45;;;1.58;;
54823;SDS011;40724;53.196;5.980;2023-06-04T12:24:50;5.82;;;1.73;;
54823;SDS011;40724;53.196;5.980;2023-06-04T12:27:21;5.85;;;2.10;;
54823;SDS011;40724;53.196;5.980;2023-06-04T12:30:21;5.00;;;1.83;;
54823;SDS011;40724;53.196;5.980;2023-06-04T12:32:41;4.00;;;1.85;;
54823;SDS011;40724;53.196;5.980;2023-06-04T12:35:07;3.75;;;2.10;;
54823;SDS011;40724;53.196;5.980;2023-06-04T12:37:33;3.85;;;1.75;;
54823;SDS011;40724;53.196;5.980;2023-06-04T12:39:59;3.38;;;1.90;;
54823;SDS011;40724;53.196;5.980;2023-06-04T12:42:25;3.40;;;1.85;;
54823;SDS011;40724;53.196;5.980;2023-06-04T12:44:52;4.75;;;1.73;;
54823;SDS011;40724;53.196;5.980;2023-06-04T12:47:18;5.00;;;1.98;;
54823;SDS011;40724;53.196;5.980;2023-06-04T12:49:46;2.55;;;1.33;;
54823;SDS011;40724;53.196;5.980;2023-06-04T12:52:12;5.95;;;1.77;;
54823;SDS011;40724;53.196;5.980;2023-06-04T12:54:41;2.72;;;1.52;;
54823;SDS011;40724;53.196;5.980;2023-06-04T12:57:07;3.88;;;1.70;;
54823;SDS011;40724;53.196;5.980;2023-06-04T12:59:33;3.85;;;1.70;;
54823;SDS011;40724;53.196;5.980;2023-06-04T13:01:59;4.82;;;2.28;;
54823;SDS011;40724;53.196;5.980;2023-06-04T13:04:25;9.90;;;2.00;;
54823;SDS011;40724;53.196;5.980;2023-06-04T13:06:51;3.85;;;1.40;;
54823;SDS011;40724;53.196;5.980;2023-06-04T13:09:20;9.00;;;2.17;;
54823;SDS011;40724;53.196;5.980;2023-06-04T13:11:48;4.65;;;1.80;;
54823;SDS011;40724;53.196;5.980;2023-06-04T13:14:14;6.75;;;2.40;;
54823;SDS011;40724;53.196;5.980;2023-06-04T13:16:41;7.57;;;3.03;;
54823;SDS011;40724;53.196;5.980;2023-06-04T13:19:07;11.95;;;2.63;;
54823;SDS011;40724;53.196;5.980;2023-06-04T13:21:33;4.45;;;1.60;;
54823;SDS011;40724;53.196;5.980;2023-06-04T13:24:00;5.70;;;1.95;;
54823;SDS011;40724;53.196;5.980;2023-06-04T13:26:25;5.13;;;1.95;;
54823;SDS011;40724;53.196;5.980;2023-06-04T13:28:51;8.27;;;3.15;;
54823;SDS011;40724;53.196;5.980;2023-06-04T13:31:17;161.05;;;15.23;;
54823;SDS011;40724;53.196;5.980;2023-06-04T13:33:43;6.85;;;2.20;;
54823;SDS011;40724;53.196;5.980;2023-06-04T13:36:09;5.22;;;2.22;;
54823;SDS011;40724;53.196;5.980;2023-06-04T13:38:35;4.10;;;1.85;;
54823;SDS011;40724;53.196;5.980;2023-06-04T13:41:00;5.50;;;2.47;;
54823;SDS011;40724;53.196;5.980;2023-06-04T13:43:26;2.75;;;1.90;;
54823;SDS011;40724;53.196;5.980;2023-06-04T13:45:52;4.72;;;2.22;;
54823;SDS011;40724;53.196;5.980;2023-06-04T13:48:18;3.85;;;1.50;;
54823;SDS011;40724;53.196;5.980;2023-06-04T13:50:44;4.85;;;2.10;;
54823;SDS011;40724;53.196;5.980;2023-06-04T13:53:10;3.92;;;1.88;;
54823;SDS011;40724;53.196;5.980;2023-06-04T13:55:38;5.80;;;2.63;;
54823;SDS011;40724;53.196;5.980;2023-06-04T13:58:04;9.00;;;2.55;;
54823;SDS011;40724;53.196;5.980;2023-06-04T14:00:30;7.00;;;2.03;;
54823;SDS011;40724;53.196;5.980;2023-06-04T14:02:56;2.20;;;1.50;;
54823;SDS011;40724;53.196;5.980;2023-06-04T14:05:24;4.82;;;2.17;;
54823;SDS011;40724;53.196;5.980;2023-06-04T14:07:52;5.07;;;2.25;;
54823;SDS011;40724;53.196;5.980;2023-06-04T14:10:18;8.38;;;2.60;;
54823;SDS011;40724;53.196;5.980;2023-06-04T14:12:44;7.70;;;2.60;;
54823;SDS011;40724;53.196;5.980;2023-06-04T14:15:10;5.90;;;2.28;;
54823;SDS011;40724;53.196;5.980;2023-06-04T14:17:37;4.47;;;2.40;;
54823;SDS011;40724;53.196;5.980;2023-06-04T14:20:04;4.70;;;1.95;;
54823;SDS011;40724;53.196;5.980;2023-06-04T14:22:38;3.90;;;1.90;;
54823;SDS011;40724;53.196;5.980;2023-06-04T14:25:04;5.95;;;2.10;;
54823;SDS011;40724;53.196;5.980;2023-06-04T14:27:31;4.15;;;2.10;;
54823;SDS011;40724;53.196;5.980;2023-06-04T14:29:58;5.50;;;2.08;;
54823;SDS011;40724;53.196;5.980;2023-06-04T14:32:24;5.05;;;2.80;;
54823;SDS011;40724;53.196;5.980;2023-06-04T14:34:50;7.53;;;2.42;;
54823;SDS011;40724;53.196;5.980;2023-06-04T14:37:16;6.57;;;2.00;;
54823;SDS011;40724;53.196;5.980;2023-06-04T14:39:42;3.25;;;2.13;;
54823;SDS011;40724;53.196;5.980;2023-06-04T14:42:08;8.70;;;2.80;;
54823;SDS011;40724;53.196;5.980;2023-06-04T14:44:34;3.38;;;1.75;;
54823;SDS011;40724;53.196;5.980;2023-06-04T14:47:00;8.85;;;2.15;;
54823;SDS011;40724;53.196;5.980;2023-06-04T14:49:25;9.98;;;3.00;;
54823;SDS011;40724;53.196;5.980;2023-06-04T14:51:51;7.97;;;2.10;;
54823;SDS011;40724;53.196;5.980;2023-06-04T14:54:17;4.85;;;1.92;;
54823;SDS011;40724;53.196;5.980;2023-06-04T14:56:43;4.53;;;2.47;;